createdAt,value
2022-10-07T00:01:07.216Z,100.00
2022-10-07T00:03:36.534Z,100.00
2022-10-07T00:06:08.099Z,100.00
2022-10-07T00:08:37.308Z,100.00
2022-10-07T00:11:07.999Z,100.00
2022-10-07T00:13:38.844Z,100.00
2022-10-07T00:16:08.488Z,100.00
2022-10-07T00:18:37.489Z,100.00
2022-10-07T00:21:08.754Z,100.00
2022-10-07T00:23:37.439Z,100.00
2022-10-07T00:26:06.575Z,100.00
2022-10-07T00:28:35.645Z,100.00
2022-10-07T00:31:07.452Z,100.00
2022-10-07T00:33:39.230Z,100.00
2022-10-07T00:36:16.195Z,100.00
2022-10-07T00:38:44.411Z,100.00
2022-10-07T00:41:18.516Z,100.00
2022-10-07T00:43:46.562Z,100.00
2022-10-07T00:46:22.385Z,100.00
2022-10-07T00:48:51.426Z,100.00
2022-10-07T00:51:20.878Z,100.00
2022-10-07T00:53:52.670Z,100.00
2022-10-07T00:56:20.844Z,100.00
2022-10-07T00:58:50.451Z,100.00
2022-10-07T01:01:20.106Z,100.00
2022-10-07T01:03:49.264Z,100.00
2022-10-07T01:06:17.819Z,100.00
2022-10-07T01:08:48.889Z,100.00
2022-10-07T01:11:29.544Z,100.00
2022-10-07T01:14:08.202Z,100.00
2022-10-07T01:16:44.455Z,100.00
2022-10-07T01:19:31.981Z,100.00
2022-10-07T01:22:12.674Z,100.00
2022-10-07T01:24:48.080Z,100.00
2022-10-07T01:27:19.944Z,100.00
2022-10-07T01:29:56.226Z,100.00
2022-10-07T01:32:32.120Z,100.00
2022-10-07T01:35:02.824Z,100.00
2022-10-07T01:37:36.582Z,100.00
2022-10-07T01:40:11.404Z,100.00
2022-10-07T01:42:41.470Z,100.00
2022-10-07T01:45:13.121Z,100.00
2022-10-07T01:47:42.387Z,100.00
2022-10-07T01:50:13.702Z,100.00
2022-10-07T01:53:03.093Z,100.00
2022-10-07T01:55:46.659Z,100.00
2022-10-07T01:58:30.110Z,100.00
2022-10-07T02:01:07.430Z,100.00
2022-10-07T02:03:47.865Z,100.00
2022-10-07T02:06:27.277Z,100.00
2022-10-07T02:08:57.661Z,100.00
2022-10-07T02:11:28.457Z,100.00
2022-10-07T02:14:02.698Z,100.00
2022-10-07T02:16:35.808Z,100.00
2022-10-07T02:19:08.860Z,100.00
2022-10-07T02:21:37.805Z,100.00
2022-10-07T02:24:06.962Z,100.00
2022-10-07T02:26:36.693Z,100.00
2022-10-07T02:29:10.025Z,100.00
2022-10-07T02:31:40.254Z,100.00
2022-10-07T02:34:12.560Z,100.00
2022-10-07T02:36:52.650Z,100.00
2022-10-07T02:39:21.559Z,100.00
2022-10-07T02:41:55.849Z,100.00
2022-10-07T02:44:31.839Z,100.00
2022-10-07T02:47:05.178Z,100.00
2022-10-07T02:49:38.495Z,100.00
2022-10-07T02:52:10.476Z,100.00
2022-10-07T02:54:42.773Z,100.00
2022-10-07T02:57:13.775Z,100.00
2022-10-07T02:59:45.334Z,100.00
2022-10-07T03:02:18.721Z,100.00
2022-10-07T03:04:46.717Z,100.00
2022-10-07T03:07:14.838Z,100.00
2022-10-07T03:09:43.693Z,100.00
2022-10-07T03:12:11.773Z,100.00
2022-10-07T03:14:39.611Z,100.00
2022-10-07T03:17:08.892Z,100.00
2022-10-07T03:19:37.100Z,100.00
2022-10-07T03:22:05.019Z,100.00
2022-10-07T03:24:32.899Z,100.00
2022-10-07T03:27:00.844Z,100.00
2022-10-07T03:29:32.745Z,100.00
2022-10-07T03:32:01.272Z,100.00
2022-10-07T03:34:31.819Z,100.00
2022-10-07T03:36:59.967Z,100.00
2022-10-07T03:39:28.235Z,100.00
2022-10-07T03:41:58.798Z,100.00
2022-10-07T03:44:26.895Z,100.00
2022-10-07T03:46:54.847Z,100.00
2022-10-07T03:49:23.549Z,100.00
2022-10-07T03:51:52.822Z,100.00
2022-10-07T03:54:21.224Z,100.00
2022-10-07T03:56:49.321Z,100.00
2022-10-07T03:59:17.276Z,100.00
2022-10-07T04:02:06.717Z,100.00
2022-10-07T04:04:34.648Z,100.00
2022-10-07T04:07:05.304Z,100.00
2022-10-07T04:09:33.235Z,100.00
2022-10-07T04:12:01.817Z,100.00
2022-10-07T04:14:29.714Z,100.00
2022-10-07T04:16:57.637Z,100.00
2022-10-07T04:19:25.546Z,100.00
2022-10-07T04:21:53.444Z,100.00
2022-10-07T04:24:22.744Z,100.00
2022-10-07T04:26:51.338Z,100.00
2022-10-07T04:29:19.390Z,100.00
2022-10-07T04:31:47.325Z,100.00
2022-10-07T04:34:15.302Z,100.00
2022-10-07T04:36:43.249Z,100.00
2022-10-07T04:39:11.189Z,100.00
2022-10-07T04:41:40.468Z,100.00
2022-10-07T04:44:08.327Z,100.00
2022-10-07T04:46:36.537Z,100.00
2022-10-07T04:49:05.131Z,100.00
2022-10-07T04:51:33.069Z,100.00
2022-10-07T04:54:00.960Z,100.00
2022-10-07T04:56:31.409Z,100.00
2022-10-07T04:59:00.854Z,100.00
2022-10-07T05:01:28.800Z,100.00
2022-10-07T05:03:58.120Z,100.00
2022-10-07T05:06:26.217Z,100.00
2022-10-07T05:08:54.376Z,100.00
2022-10-07T05:11:22.269Z,100.00
2022-10-07T05:13:50.391Z,100.00
2022-10-07T05:16:19.675Z,100.00
2022-10-07T05:18:47.603Z,100.00
2022-10-07T05:21:15.529Z,100.00
2022-10-07T05:23:43.404Z,100.00
2022-10-07T05:26:13.859Z,100.00
2022-10-07T05:28:44.173Z,100.00
2022-10-07T05:31:14.704Z,100.00
2022-10-07T05:33:44.249Z,100.00
2022-10-07T05:36:12.576Z,100.00
2022-10-07T05:38:40.662Z,100.00
2022-10-07T05:41:11.362Z,100.00
2022-10-07T05:43:42.341Z,100.00
2022-10-07T05:46:13.429Z,100.00
2022-10-07T05:48:46.390Z,100.00
2022-10-07T05:51:15.149Z,100.00
2022-10-07T05:53:43.259Z,100.00
2022-10-07T05:56:12.686Z,100.00
2022-10-07T05:58:40.980Z,100.00
2022-10-07T06:01:14.722Z,100.00
2022-10-07T06:03:44.749Z,100.00
2022-10-07T06:06:12.651Z,100.00
2022-10-07T06:08:40.648Z,100.00
2022-10-07T06:11:29.039Z,100.00
2022-10-07T06:13:57.139Z,100.00
2022-10-07T06:16:25.769Z,100.00
2022-10-07T06:18:55.997Z,100.00
2022-10-07T06:21:27.798Z,100.00
2022-10-07T06:23:58.047Z,100.00
2022-10-07T06:26:26.211Z,100.00
2022-10-07T06:28:54.165Z,100.00
2022-10-07T06:31:25.358Z,100.00
2022-10-07T06:33:55.192Z,100.00
2022-10-07T06:36:23.488Z,100.00
2022-10-07T06:38:52.912Z,100.00
2022-10-07T06:41:21.660Z,100.00
2022-10-07T06:43:50.070Z,100.00
2022-10-07T06:46:19.817Z,100.00
2022-10-07T06:48:48.089Z,100.00
2022-10-07T06:51:19.723Z,100.00
2022-10-07T06:53:51.565Z,100.00
2022-10-07T06:56:19.598Z,100.00
2022-10-07T06:58:48.739Z,100.00
2022-10-07T07:01:17.062Z,100.00
2022-10-07T07:03:45.076Z,100.00
2022-10-07T07:06:13.809Z,100.00
2022-10-07T07:08:44.797Z,100.00
2022-10-07T07:11:32.206Z,100.00
2022-10-07T07:14:00.671Z,100.00
2022-10-07T07:16:29.033Z,100.00
2022-10-07T07:18:59.094Z,100.00
2022-10-07T07:21:28.963Z,100.00
2022-10-07T07:23:58.991Z,100.00
2022-10-07T07:26:28.251Z,100.00
2022-10-07T07:28:58.803Z,100.00
2022-10-07T07:31:28.869Z,100.00
2022-10-07T07:33:57.173Z,100.00
2022-10-07T07:36:26.492Z,100.00
2022-10-07T07:38:55.578Z,100.00
2022-10-07T07:41:27.330Z,100.00
2022-10-07T07:43:57.449Z,100.00
2022-10-07T07:46:29.921Z,100.00
2022-10-07T07:48:58.520Z,100.00
2022-10-07T07:51:26.432Z,100.00
2022-10-07T07:53:54.397Z,100.00
2022-10-07T07:56:22.441Z,100.00
2022-10-07T07:58:51.745Z,100.00
2022-10-07T08:01:20.082Z,100.00
2022-10-07T08:03:49.929Z,100.00
2022-10-07T08:06:22.174Z,100.00
2022-10-07T08:08:51.998Z,100.00
2022-10-07T08:11:21.796Z,100.00
2022-10-07T08:13:51.637Z,100.00
2022-10-07T08:16:21.454Z,100.00
2022-10-07T08:18:51.097Z,100.00
2022-10-07T08:21:20.910Z,100.00
2022-10-07T08:23:49.596Z,100.00
2022-10-07T08:26:17.494Z,100.00
2022-10-07T08:28:46.496Z,100.00
2022-10-07T08:31:18.726Z,100.00
2022-10-07T08:33:49.392Z,100.00
2022-10-07T08:36:19.478Z,100.00
2022-10-07T08:38:47.854Z,100.00
2022-10-07T08:41:25.934Z,100.00
2022-10-07T08:43:53.890Z,100.00
2022-10-07T08:46:30.190Z,100.00
2022-10-07T08:49:01.043Z,100.00
2022-10-07T08:51:35.715Z,100.00
2022-10-07T08:54:04.108Z,100.00
2022-10-07T08:56:33.954Z,100.00
2022-10-07T08:59:21.749Z,100.00
2022-10-07T09:02:00.540Z,100.00
2022-10-07T09:04:43.843Z,100.00
2022-10-07T09:07:15.803Z,100.00
2022-10-07T09:09:47.676Z,100.00
2022-10-07T09:12:22.928Z,100.00
2022-10-07T09:14:55.022Z,100.00
2022-10-07T09:17:34.867Z,100.00
2022-10-07T09:20:07.964Z,100.00
2022-10-07T09:22:39.630Z,100.00
2022-10-07T09:25:20.806Z,100.00
2022-10-07T09:27:51.383Z,100.00
2022-10-07T09:30:20.300Z,100.00
2022-10-07T09:32:51.562Z,100.00
2022-10-07T09:35:22.047Z,100.00
2022-10-07T09:38:01.735Z,100.00
2022-10-07T09:40:35.915Z,100.00
2022-10-07T09:43:14.117Z,94.14
2022-10-07T09:45:48.004Z,93.97
2022-10-07T09:48:24.611Z,90.04
2022-10-07T09:50:52.682Z,80.05
2022-10-07T09:53:23.106Z,78.53
2022-10-07T09:55:53.245Z,76.10
2022-10-07T09:58:26.012Z,75.49
2022-10-07T10:00:55.934Z,72.57
2022-10-07T10:03:30.448Z,71.87
2022-10-07T10:06:00.738Z,70.32
2022-10-07T10:08:31.222Z,69.86
2022-10-07T10:11:01.478Z,69.74
2022-10-07T10:13:32.907Z,69.39
2022-10-07T10:16:02.180Z,67.10
2022-10-07T10:18:40.529Z,68.56
2022-10-07T10:21:22.174Z,67.81
2022-10-07T10:23:52.623Z,66.36
2022-10-07T10:26:48.473Z,62.58
2022-10-07T10:29:35.466Z,61.57
2022-10-07T10:32:28.657Z,64.92
2022-10-07T10:35:04.043Z,61.53
2022-10-07T10:37:47.256Z,60.54
2022-10-07T10:40:27.073Z,60.70
2022-10-07T10:43:08.133Z,62.39
2022-10-07T10:45:44.360Z,58.87
2022-10-07T10:48:29.171Z,58.51
2022-10-07T10:51:05.930Z,59.04
2022-10-07T10:53:48.932Z,58.24
2022-10-07T10:56:33.505Z,59.71
2022-10-07T10:59:19.156Z,57.58
2022-10-07T11:01:56.526Z,58.19
2022-10-07T11:04:46.703Z,56.16
2022-10-07T11:07:21.420Z,58.02
2022-10-07T11:09:53.303Z,57.65
2022-10-07T11:12:26.708Z,53.47
2022-10-07T11:15:02.239Z,55.59
2022-10-07T11:17:33.065Z,54.82
2022-10-07T11:20:08.456Z,55.17
2022-10-07T11:22:44.460Z,56.14
2022-10-07T11:25:25.370Z,55.00
2022-10-07T11:27:57.063Z,54.02
2022-10-07T11:30:32.101Z,53.20
2022-10-07T11:33:04.917Z,52.79
2022-10-07T11:35:35.370Z,54.07
2022-10-07T11:38:15.563Z,53.05
2022-10-07T11:40:46.787Z,54.27
2022-10-07T11:43:20.339Z,52.60
2022-10-07T11:45:54.120Z,52.49
2022-10-07T11:48:28.581Z,53.96
2022-10-07T11:51:00.876Z,51.11
2022-10-07T11:53:35.744Z,50.50
2022-10-07T11:56:07.251Z,52.78
2022-10-07T11:58:38.399Z,48.29
2022-10-07T12:01:45.846Z,50.52
2022-10-07T12:04:37.033Z,50.17
2022-10-07T12:07:36.998Z,51.02
2022-10-07T12:10:28.248Z,51.16
2022-10-07T12:13:02.499Z,50.38
2022-10-07T12:15:35.983Z,49.95
2022-10-07T12:18:33.253Z,48.91
2022-10-07T12:21:07.848Z,47.60
2022-10-07T12:23:41.470Z,48.75
2022-10-07T12:26:48.771Z,49.17
2022-10-07T12:29:49.463Z,49.78
2022-10-07T12:32:56.854Z,49.12
2022-10-07T12:35:54.202Z,49.34
2022-10-07T12:38:28.347Z,49.48
2022-10-07T12:41:19.225Z,49.20
2022-10-07T12:43:56.477Z,49.14
2022-10-07T12:46:30.412Z,48.75
2022-10-07T12:49:05.108Z,47.86
2022-10-07T12:51:39.518Z,49.06
2022-10-07T12:54:17.818Z,47.63
2022-10-07T12:56:46.362Z,48.99
2022-10-07T12:59:50.335Z,47.96
2022-10-07T13:02:57.267Z,48.06
2022-10-07T13:06:12.710Z,47.14
2022-10-07T13:09:06.043Z,47.75
2022-10-07T13:12:16.311Z,47.80
2022-10-07T13:14:54.332Z,47.26
2022-10-07T13:17:47.514Z,46.63
2022-10-07T13:20:32.330Z,47.13
2022-10-07T13:23:06.426Z,47.42
2022-10-07T13:25:34.728Z,46.66
2022-10-07T13:28:02.734Z,47.36
2022-10-07T13:30:40.365Z,48.26
2022-10-07T13:33:24.573Z,46.45
2022-10-07T13:35:53.895Z,47.32
2022-10-07T13:38:23.635Z,47.67
2022-10-07T13:40:58.037Z,46.93
2022-10-07T13:43:29.429Z,46.85
2022-10-07T13:45:58.758Z,46.82
2022-10-07T13:48:35.179Z,47.66
2022-10-07T13:51:04.815Z,47.13
2022-10-07T13:53:36.497Z,47.19
2022-10-07T13:56:09.809Z,46.70
2022-10-07T13:58:38.678Z,47.16
2022-10-07T14:01:07.603Z,47.35
2022-10-07T14:03:56.947Z,47.47
2022-10-07T14:06:53.669Z,47.03
2022-10-07T14:09:26.445Z,47.72
2022-10-07T14:11:58.047Z,48.12
2022-10-07T14:14:28.416Z,48.21
2022-10-07T14:17:00.340Z,49.30
2022-10-07T14:19:33.402Z,48.91
2022-10-07T14:22:04.475Z,48.93
2022-10-07T14:24:33.082Z,48.08
2022-10-07T14:27:01.569Z,48.45
2022-10-07T14:29:38.682Z,49.34
2022-10-07T14:32:35.142Z,49.65
2022-10-07T14:35:19.835Z,50.50
2022-10-07T14:37:48.187Z,51.77
2022-10-07T14:40:23.322Z,52.36
2022-10-07T14:42:53.881Z,52.50
2022-10-07T14:45:23.773Z,52.97
2022-10-07T14:47:51.752Z,53.62
2022-10-07T14:50:21.720Z,53.45
2022-10-07T14:52:52.242Z,53.75
2022-10-07T14:55:24.705Z,53.44
2022-10-07T14:57:53.072Z,53.42
2022-10-07T15:00:22.958Z,53.99
2022-10-07T15:02:51.457Z,53.39
2022-10-07T15:05:22.695Z,54.00
2022-10-07T15:07:51.248Z,53.66
2022-10-07T15:10:21.204Z,54.81
2022-10-07T15:12:49.385Z,56.50
2022-10-07T15:15:18.204Z,59.88
2022-10-07T15:17:46.475Z,59.13
2022-10-07T15:20:16.025Z,61.83
2022-10-07T15:22:46.174Z,59.87
2022-10-07T15:25:15.755Z,62.24
2022-10-07T15:27:43.751Z,64.31
2022-10-07T15:30:13.230Z,68.05
2022-10-07T15:32:41.270Z,69.44
2022-10-07T15:35:09.833Z,68.68
2022-10-07T15:37:37.825Z,73.93
2022-10-07T15:40:08.733Z,74.15
2022-10-07T15:42:36.679Z,74.74
2022-10-07T15:45:04.844Z,74.56
2022-10-07T15:47:34.343Z,79.89
2022-10-07T15:50:02.322Z,81.75
2022-10-07T15:52:30.313Z,82.47
2022-10-07T15:54:58.208Z,84.07
2022-10-07T15:57:27.512Z,85.90
2022-10-07T15:59:55.732Z,84.10
2022-10-07T16:02:24.902Z,85.02
2022-10-07T16:04:52.915Z,84.98
2022-10-07T16:07:21.191Z,85.60
2022-10-07T16:09:49.062Z,90.28
2022-10-07T16:12:17.289Z,91.76
2022-10-07T16:14:47.450Z,90.14
2022-10-07T16:17:15.638Z,87.82
2022-10-07T16:19:44.493Z,86.27
2022-10-07T16:22:12.438Z,86.11
2022-10-07T16:24:42.225Z,87.25
2022-10-07T16:27:10.085Z,87.38
2022-10-07T16:29:55.205Z,87.38
2022-10-07T16:32:24.511Z,88.74
2022-10-07T16:34:52.694Z,96.85
2022-10-07T16:37:20.644Z,100.00
2022-10-07T16:39:48.608Z,100.00
2022-10-07T16:42:17.901Z,100.00
2022-10-07T16:44:50.527Z,100.00
2022-10-07T16:47:18.756Z,100.00
2022-10-07T16:49:48.026Z,100.00
2022-10-07T16:52:16.049Z,100.00
2022-10-07T16:54:43.971Z,100.00
2022-10-07T16:57:11.948Z,100.00
2022-10-07T16:59:39.941Z,100.00
2022-10-07T17:02:07.893Z,100.00
2022-10-07T17:04:35.861Z,100.00
2022-10-07T17:07:05.990Z,100.00
2022-10-07T17:09:34.101Z,100.00
2022-10-07T17:12:02.133Z,100.00
2022-10-07T17:14:31.873Z,100.00
2022-10-07T17:17:00.559Z,100.00
2022-10-07T17:19:29.766Z,100.00
2022-10-07T17:21:59.258Z,100.00
2022-10-07T17:24:28.930Z,100.00
2022-10-07T17:26:57.085Z,100.00
2022-10-07T17:29:26.324Z,100.00
2022-10-07T17:31:54.965Z,100.00
2022-10-07T17:34:23.654Z,100.00
2022-10-07T17:36:51.772Z,100.00
2022-10-07T17:39:20.196Z,100.00
2022-10-07T17:41:49.731Z,100.00
2022-10-07T17:44:17.908Z,100.00
2022-10-07T17:46:46.926Z,100.00
2022-10-07T17:49:14.976Z,100.00
2022-10-07T17:51:43.994Z,100.00
2022-10-07T17:54:14.006Z,100.00
2022-10-07T17:56:42.450Z,100.00
2022-10-07T17:59:12.367Z,100.00
2022-10-07T18:01:41.260Z,100.00
2022-10-07T18:04:13.033Z,100.00
2022-10-07T18:06:42.839Z,100.00
2022-10-07T18:09:15.144Z,100.00
2022-10-07T18:12:00.367Z,100.00
2022-10-07T18:14:52.604Z,100.00
2022-10-07T18:17:21.586Z,100.00
2022-10-07T18:19:49.542Z,100.00
2022-10-07T18:22:17.478Z,100.00
2022-10-07T18:24:46.162Z,100.00
2022-10-07T18:27:14.137Z,100.00
2022-10-07T18:29:43.451Z,100.00
2022-10-07T18:32:11.409Z,100.00
2022-10-07T18:34:39.393Z,100.00
2022-10-07T18:37:08.412Z,100.00
2022-10-07T18:39:36.335Z,100.00
2022-10-07T18:42:04.516Z,100.00
2022-10-07T18:44:32.779Z,100.00
2022-10-07T18:47:02.032Z,100.00
2022-10-07T18:49:30.072Z,100.00
2022-10-07T18:51:58.061Z,100.00
2022-10-07T18:54:25.926Z,100.00
2022-10-07T18:56:54.153Z,100.00
2022-10-07T18:59:22.144Z,100.00
2022-10-07T19:01:51.110Z,100.00
2022-10-07T19:04:20.852Z,100.00
2022-10-07T19:06:49.573Z,100.00
2022-10-07T19:09:19.918Z,100.00
2022-10-07T19:11:48.222Z,100.00
2022-10-07T19:14:15.798Z,100.00
2022-10-07T19:16:45.449Z,100.00
2022-10-07T19:19:17.013Z,100.00
2022-10-07T19:21:48.388Z,100.00
2022-10-07T19:24:16.840Z,100.00
2022-10-07T19:26:46.433Z,100.00
2022-10-07T19:29:16.588Z,100.00
2022-10-07T19:31:46.095Z,100.00
2022-10-07T19:34:17.211Z,100.00
2022-10-07T19:36:47.923Z,100.00
2022-10-07T19:39:17.359Z,100.00
2022-10-07T19:41:45.575Z,100.00
2022-10-07T19:44:14.161Z,100.00
2022-10-07T19:46:42.264Z,100.00
2022-10-07T19:49:10.864Z,100.00
2022-10-07T19:51:40.383Z,100.00
2022-10-07T19:54:10.871Z,100.00
2022-10-07T19:56:40.151Z,100.00
2022-10-07T19:59:10.272Z,100.00
2022-10-07T20:01:41.395Z,100.00
2022-10-07T20:04:11.155Z,100.00
2022-10-07T20:06:39.406Z,100.00
2022-10-07T20:09:10.790Z,100.00
2022-10-07T20:11:38.758Z,100.00
2022-10-07T20:14:07.196Z,100.00
2022-10-07T20:16:37.269Z,100.00
2022-10-07T20:19:06.796Z,100.00
2022-10-07T20:21:36.694Z,100.00
2022-10-07T20:24:06.570Z,100.00
2022-10-07T20:26:37.812Z,100.00
2022-10-07T20:29:07.203Z,100.00
2022-10-07T20:31:38.605Z,100.00
2022-10-07T20:34:08.265Z,100.00
2022-10-07T20:36:38.599Z,100.00
2022-10-07T20:39:25.842Z,100.00
2022-10-07T20:42:12.557Z,100.00
2022-10-07T20:44:41.168Z,100.00
2022-10-07T20:47:10.393Z,100.00
2022-10-07T20:49:41.582Z,100.00
2022-10-07T20:52:11.709Z,100.00
2022-10-07T20:54:39.718Z,100.00
2022-10-07T20:57:08.997Z,100.00
2022-10-07T20:59:36.900Z,100.00
2022-10-07T21:02:09.493Z,100.00
2022-10-07T21:04:37.793Z,100.00
2022-10-07T21:07:05.719Z,100.00
2022-10-07T21:09:36.568Z,100.00
2022-10-07T21:12:07.260Z,100.00
2022-10-07T21:14:36.663Z,100.00
2022-10-07T21:17:05.527Z,100.00
2022-10-07T21:19:35.634Z,100.00
2022-10-07T21:22:04.012Z,100.00
2022-10-07T21:24:34.260Z,100.00
2022-10-07T21:27:02.893Z,100.00
2022-10-07T21:29:32.249Z,100.00
2022-10-07T21:32:02.051Z,100.00
2022-10-07T21:34:29.965Z,100.00
2022-10-07T21:36:58.059Z,100.00
2022-10-07T21:39:26.529Z,100.00
2022-10-07T21:41:55.050Z,100.00
2022-10-07T21:44:22.943Z,100.00
2022-10-07T21:46:50.909Z,100.00
2022-10-07T21:49:20.969Z,100.00
2022-10-07T21:51:48.838Z,100.00
2022-10-07T21:54:16.708Z,100.00
2022-10-07T21:56:46.293Z,100.00
2022-10-07T21:59:14.433Z,100.00
2022-10-07T22:01:43.217Z,100.00
2022-10-07T22:04:17.346Z,100.00
2022-10-07T22:07:04.487Z,100.00
2022-10-07T22:09:33.360Z,100.00
2022-10-07T22:12:01.254Z,100.00
2022-10-07T22:14:29.180Z,100.00
2022-10-07T22:16:57.077Z,100.00
2022-10-07T22:19:25.282Z,100.00
2022-10-07T22:21:55.277Z,100.00
2022-10-07T22:24:24.033Z,100.00
2022-10-07T22:26:52.234Z,100.00
2022-10-07T22:29:21.910Z,100.00
2022-10-07T22:31:49.909Z,100.00
2022-10-07T22:34:35.302Z,100.00
2022-10-07T22:37:06.259Z,100.00
2022-10-07T22:39:34.084Z,100.00
2022-10-07T22:42:02.341Z,100.00
2022-10-07T22:44:31.764Z,100.00
2022-10-07T22:47:00.401Z,100.00
2022-10-07T22:49:30.177Z,100.00
2022-10-07T22:51:59.774Z,100.00
2022-10-07T22:54:30.050Z,100.00
2022-10-07T22:56:57.964Z,100.00
2022-10-07T22:59:25.917Z,100.00
2022-10-07T23:01:53.814Z,100.00
2022-10-07T23:04:21.808Z,100.00
2022-10-07T23:06:49.788Z,100.00
2022-10-07T23:09:17.697Z,100.00
2022-10-07T23:11:46.925Z,100.00
2022-10-07T23:14:14.898Z,100.00
2022-10-07T23:16:44.324Z,100.00
2022-10-07T23:19:12.346Z,100.00
2022-10-07T23:21:40.263Z,100.00
2022-10-07T23:24:09.963Z,100.00
2022-10-07T23:26:38.373Z,100.00
2022-10-07T23:29:08.653Z,100.00
2022-10-07T23:31:36.893Z,100.00
2022-10-07T23:34:06.694Z,100.00
2022-10-07T23:36:35.271Z,100.00
2022-10-07T23:39:03.324Z,100.00
2022-10-07T23:41:32.121Z,100.00
2022-10-07T23:44:03.003Z,100.00
2022-10-07T23:46:35.048Z,100.00
2022-10-07T23:49:03.998Z,100.00
2022-10-07T23:51:32.524Z,100.00
2022-10-07T23:54:01.937Z,100.00
2022-10-07T23:56:30.153Z,100.00
2022-10-07T23:58:58.228Z,100.00
